UMMS

Minsk International Airport

Minsk, Belarus
TAF UMMS 192304Z 2000/2024 20005MPS 5000 BR FEW004 SCT030 TX25/2013Z TN12/2003Z TEMPO 2000/2006 VRB02MPS 0300 FG SCT002 FM200600 24006G11MPS 9999 SCT030
Issued Valid From Valid To
Sep-19 @ 23:04 UTC
(2 hours ago)
Sep-20 @ 00:00 UTC
(2 hours ago)
Sep-21 @ 00:00 UTC
(in 22 hours)
Sep-20 @ 00:00 to Sep-20 @ 06:00
TAF UMMS 192304Z 2000/2024 20005MPS 5000 BR FEW004 SCT030 TX25/2013Z TN12/2003Z
Wind Visibility Clouds Conditions
200° at 10 knots 5,005 meters
  • Few at 400' AGL
  • Scattered at 3,000' AGL
  • Mist
Temporary Sep-20 @ 00:00 to Sep-20 @ 06:00
TEMPO 2000/2006 VRB02MPS 0300 FG SCT002
Wind Visibility Clouds Conditions
Variable at 4 knots 306 meters
  • Scattered at 200' AGL
  • Fog
From Sep-20 @ 06:00 to Sep-21 @ 00:00
FM200600 24006G11MPS 9999 SCT030
Wind Visibility Clouds
240° at 12 knots
 Gusting to 21 knots
10,000+ meters
  • Scattered at 3,000' AGL
TAF UMMS 192304Z 2000/2024 20005MPS 5000 BR FEW004 SCT030 TX25/2013Z TN12/2003Z TEMPO 2000/2006 VRB02MPS 0300 FG SCT002 FM200600 24006G11MPS 9999 SCT030
Issued Sep-19 @ 23:04 UTC
(2 hours ago)
Valid From Sep-20 @ 00:00 UTC
(2 hours ago)
Valid To Sep-21 @ 00:00 UTC
(in 22 hours)
Sep-20 @ 00:00 - Sep-20 @ 06:00
Wind Visibility
200° at 10 knots 5,005 meters
Clouds
  • Few at 400' AGL
  • Scattered at 3,000' AGL
Conditions
  • Mist
Temporary Sep-20 @ 00:00 - Sep-20 @ 06:00
Wind Visibility
Variable at 4 knots 306 meters
Clouds
  • Scattered at 200' AGL
Conditions
  • Fog
From Sep-20 @ 06:00 - Sep-21 @ 00:00
Wind Visibility
240° at 12 knots
 Gusting to 21 knots
10,000+ meters
Clouds
  • Scattered at 3,000' AGL